createdAt,value
2018-02-23T00:00:09.326Z,101337.46
2018-02-23T00:01:14.966Z,101338.79
2018-02-23T00:02:21.036Z,101330.81
2018-02-23T00:03:27.225Z,101328.94
2018-02-23T00:04:33.188Z,101338.50
2018-02-23T00:05:39.460Z,101333.12
2018-02-23T00:06:45.601Z,101343.81
2018-02-23T00:07:51.535Z,101340.65
2018-02-23T00:08:57.609Z,101335.72
2018-02-23T00:10:03.862Z,101341.19
2018-02-23T00:11:09.450Z,101338.30
2018-02-23T00:12:15.707Z,101339.61
2018-02-23T00:13:21.910Z,101334.52
2018-02-23T00:14:27.823Z,101335.95
2018-02-23T00:15:34.056Z,101332.22
2018-02-23T00:16:40.353Z,101332.59
2018-02-23T00:17:46.242Z,101332.76
2018-02-23T00:18:52.466Z,101336.11
2018-02-23T00:19:58.910Z,101334.39
2018-02-23T00:21:05.672Z,101336.81
2018-02-23T00:22:11.520Z,101333.00
2018-02-23T00:23:17.405Z,101338.75
2018-02-23T00:24:23.378Z,101339.71
2018-02-23T00:25:29.266Z,101336.34
2018-02-23T00:26:35.447Z,101337.39
2018-02-23T00:27:41.600Z,101331.83
2018-02-23T00:28:47.527Z,101338.24
2018-02-23T00:29:53.695Z,101336.55
2018-02-23T00:31:00.625Z,101341.84
2018-02-23T00:32:06.886Z,101337.32
2018-02-23T00:33:13.000Z,101346.09
2018-02-23T00:34:19.155Z,101343.45
2018-02-23T00:35:25.368Z,101340.53
2018-02-23T00:36:31.586Z,101334.90
2018-02-23T00:37:37.717Z,101337.96
2018-02-23T00:38:43.957Z,101336.22
2018-02-23T00:39:49.465Z,101340.39
2018-02-23T00:40:55.757Z,101337.37
2018-02-23T00:42:01.953Z,101338.92
2018-02-23T00:43:08.223Z,101335.13
2018-02-23T00:44:14.454Z,101333.52
2018-02-23T00:45:20.357Z,101332.48
2018-02-23T00:46:31.764Z,101331.77
2018-02-23T00:47:37.916Z,101324.48
2018-02-23T00:48:44.061Z,101320.70
2018-02-23T00:49:50.207Z,101326.14
2018-02-23T00:50:56.471Z,101325.94
2018-02-23T00:52:02.616Z,101325.27
2018-02-23T00:53:08.783Z,101323.17
2018-02-23T00:54:14.944Z,101323.68
2018-02-23T00:55:21.161Z,101319.79
2018-02-23T00:56:27.287Z,101320.14
2018-02-23T00:57:33.457Z,101321.16
2018-02-23T00:58:39.624Z,101322.95
2018-02-23T00:59:48.686Z,101325.14
2018-02-23T01:00:54.841Z,101322.63
2018-02-23T01:02:01.023Z,101323.17
2018-02-23T01:03:07.229Z,101333.69
2018-02-23T01:04:13.424Z,101329.86
2018-02-23T01:05:19.859Z,101327.88
2018-02-23T01:06:26.050Z,101322.58
2018-02-23T01:07:32.214Z,101324.42
2018-02-23T01:08:38.416Z,101322.11
2018-02-23T01:09:44.578Z,101325.20
2018-02-23T01:10:51.341Z,101321.56
2018-02-23T01:11:57.310Z,101325.08
2018-02-23T01:13:10.348Z,101320.58
2018-02-23T01:14:16.617Z,101321.81
2018-02-23T01:15:22.809Z,101325.25
2018-02-23T01:16:28.721Z,101325.88
2018-02-23T01:17:34.939Z,101324.09
2018-02-23T01:18:41.147Z,101322.70
2018-02-23T01:19:47.316Z,101326.02
2018-02-23T01:20:53.555Z,101325.53
2018-02-23T01:21:59.741Z,101319.61
2018-02-23T01:23:05.602Z,101323.43
2018-02-23T01:24:11.784Z,101323.47
2018-02-23T01:25:17.968Z,101327.08
2018-02-23T01:26:24.104Z,101327.23
2018-02-23T01:27:29.938Z,101331.33
2018-02-23T01:28:36.108Z,101327.06
2018-02-23T01:29:42.367Z,101325.95
2018-02-23T01:30:48.555Z,101330.20
2018-02-23T01:31:54.688Z,101330.78
2018-02-23T01:33:00.847Z,101331.66
2018-02-23T01:34:07.008Z,101328.47
2018-02-23T01:35:13.219Z,101333.13
2018-02-23T01:36:19.366Z,101329.04
2018-02-23T01:37:25.217Z,101332.48
2018-02-23T01:38:31.404Z,101327.73
2018-02-23T01:39:37.571Z,101334.45
2018-02-23T01:40:43.519Z,101331.41
2018-02-23T01:41:49.744Z,101335.69
2018-02-23T01:42:55.977Z,101330.09
2018-02-23T01:44:02.385Z,101330.95
2018-02-23T01:45:08.642Z,101328.69
2018-02-23T01:46:14.881Z,101331.87
2018-02-23T01:47:26.907Z,101325.22
2018-02-23T01:48:33.347Z,101328.70
2018-02-23T01:49:39.510Z,101330.11
2018-02-23T01:50:57.023Z,101331.06
2018-02-23T01:52:03.202Z,101333.16
2018-02-23T01:53:09.435Z,101336.71
2018-02-23T01:54:15.876Z,101335.59
2018-02-23T01:55:22.083Z,101333.91
2018-02-23T01:56:28.332Z,101335.89
2018-02-23T01:57:34.288Z,101338.61
2018-02-23T01:58:40.432Z,101337.50
2018-02-23T01:59:46.589Z,101331.48
2018-02-23T02:00:52.518Z,101333.25
2018-02-23T02:01:58.505Z,101332.31
2018-02-23T02:03:04.768Z,101332.84
2018-02-23T02:04:10.936Z,101334.98
2018-02-23T02:05:17.128Z,101329.12
2018-02-23T02:06:23.288Z,101329.44
2018-02-23T02:07:29.476Z,101331.16
2018-02-23T02:08:35.702Z,101328.16
2018-02-23T02:09:41.940Z,101325.06
2018-02-23T02:10:48.126Z,101319.62
2018-02-23T02:11:54.341Z,101320.41
2018-02-23T02:13:00.620Z,101320.55
2018-02-23T02:14:06.833Z,101321.84
2018-02-23T02:15:12.751Z,101313.97
2018-02-23T02:16:18.988Z,101315.69
2018-02-23T02:17:25.181Z,101309.17
2018-02-23T02:18:30.946Z,101310.84
2018-02-23T02:19:39.775Z,101308.72
2018-02-23T02:20:46.018Z,101312.37
2018-02-23T02:21:51.620Z,101311.64
2018-02-23T02:22:58.184Z,101305.91
2018-02-23T02:24:04.350Z,101302.88
2018-02-23T02:25:10.529Z,101302.52
2018-02-23T02:26:16.397Z,101296.09
2018-02-23T02:27:22.315Z,101301.50
2018-02-23T02:28:28.472Z,101301.88
2018-02-23T02:29:34.981Z,101307.16
2018-02-23T02:30:40.879Z,101303.72
2018-02-23T02:31:47.074Z,101301.91
2018-02-23T02:32:53.236Z,101297.91
2018-02-23T02:33:59.246Z,101299.23
2018-02-23T02:35:05.485Z,101298.67
2018-02-23T02:36:11.527Z,101298.88
2018-02-23T02:37:17.812Z,101299.92
2018-02-23T02:38:24.076Z,101298.50
2018-02-23T02:39:30.332Z,101289.80
2018-02-23T02:40:36.518Z,101297.16
2018-02-23T02:41:42.554Z,101294.54
2018-02-23T02:42:48.497Z,101296.17
2018-02-23T02:43:54.447Z,101299.61
2018-02-23T02:45:00.191Z,101295.33
2018-02-23T02:46:06.441Z,101298.39
2018-02-23T02:47:13.201Z,101298.88
2018-02-23T02:48:19.396Z,101299.14
2018-02-23T02:49:25.531Z,101298.85
2018-02-23T02:50:31.730Z,101298.16
2018-02-23T02:51:37.914Z,101302.75
2018-02-23T02:52:44.105Z,101297.86
2018-02-23T02:53:50.254Z,101292.70
2018-02-23T02:54:56.442Z,101295.50
2018-02-23T02:56:02.675Z,101292.27
2018-02-23T02:57:08.875Z,101293.46
2018-02-23T02:58:15.085Z,101294.66
2018-02-23T02:59:21.304Z,101288.66
2018-02-23T03:00:27.463Z,101290.17
2018-02-23T03:01:34.524Z,101290.70
2018-02-23T03:02:40.676Z,101284.44
2018-02-23T03:03:46.868Z,101283.27
2018-02-23T03:04:53.109Z,101290.08
2018-02-23T03:05:59.348Z,101285.77
2018-02-23T03:07:05.575Z,101278.14
2018-02-23T03:08:11.744Z,101283.39
2018-02-23T03:09:17.953Z,101283.36
2018-02-23T03:10:24.129Z,101287.29
2018-02-23T03:11:30.378Z,101290.08
2018-02-23T03:12:36.513Z,101289.70
2018-02-23T03:13:42.720Z,101292.24
2018-02-23T03:14:48.932Z,101285.95
2018-02-23T03:15:55.160Z,101285.59
2018-02-23T03:17:01.312Z,101287.14
2018-02-23T03:18:07.494Z,101290.34
2018-02-23T03:19:13.692Z,101290.92
2018-02-23T03:20:19.863Z,101297.78
2018-02-23T03:21:26.636Z,101295.88
2018-02-23T03:22:32.785Z,101290.31
2018-02-23T03:23:38.952Z,101290.59
2018-02-23T03:24:44.972Z,101295.44
2018-02-23T03:25:51.163Z,101298.62
2018-02-23T03:26:57.400Z,101290.17
2018-02-23T03:28:03.674Z,101293.81
2018-02-23T03:29:09.860Z,101293.61
2018-02-23T03:30:16.064Z,101289.83
2018-02-23T03:31:22.310Z,101293.58
2018-02-23T03:32:28.500Z,101293.57
2018-02-23T03:33:34.659Z,101287.22
2018-02-23T03:34:40.839Z,101289.12
2018-02-23T03:35:47.046Z,101293.51
2018-02-23T03:36:53.248Z,101301.85
2018-02-23T03:37:59.378Z,101298.52
2018-02-23T03:39:05.424Z,101298.00
2018-02-23T03:40:11.657Z,101305.35
2018-02-23T03:41:18.162Z,101304.95
2018-02-23T03:42:24.394Z,101301.81
2018-02-23T03:43:30.577Z,101303.84
2018-02-23T03:44:36.492Z,101295.64
2018-02-23T03:45:42.593Z,101297.80
2018-02-23T03:46:48.778Z,101292.46
2018-02-23T03:47:55.040Z,101293.30
2018-02-23T03:49:01.254Z,101290.21
2018-02-23T03:50:07.413Z,101290.73
2018-02-23T03:51:13.616Z,101289.33
2018-02-23T03:52:19.748Z,101295.73
2018-02-23T03:53:25.872Z,101296.14
2018-02-23T03:54:32.045Z,101295.52
2018-02-23T03:55:38.201Z,101295.23
2018-02-23T03:56:44.420Z,101296.58
2018-02-23T03:57:50.642Z,101290.11
2018-02-23T03:58:56.813Z,101305.39
2018-02-23T04:00:03.065Z,101302.80
2018-02-23T04:01:08.948Z,101304.22
2018-02-23T04:02:14.830Z,101303.44
2018-02-23T04:03:26.183Z,101300.70
2018-02-23T04:04:32.407Z,101307.67
2018-02-23T04:05:39.314Z,101306.11
2018-02-23T04:06:45.484Z,101307.92
2018-02-23T04:07:51.608Z,101305.14
2018-02-23T04:08:57.757Z,101305.42
2018-02-23T04:10:03.602Z,101310.11
2018-02-23T04:11:09.768Z,101300.02
2018-02-23T04:12:16.049Z,101300.39
2018-02-23T04:13:22.245Z,101297.17
2018-02-23T04:14:28.441Z,101298.36
2018-02-23T04:15:34.592Z,101297.95
2018-02-23T04:16:40.836Z,101294.05
2018-02-23T04:17:47.040Z,101291.59
2018-02-23T04:18:53.230Z,101298.64
2018-02-23T04:19:59.105Z,101291.59
2018-02-23T04:21:05.362Z,101295.50
2018-02-23T04:22:11.600Z,101295.91
2018-02-23T04:23:17.826Z,101296.69
2018-02-23T04:24:24.020Z,101294.95
2018-02-23T04:25:30.198Z,101294.67
2018-02-23T04:26:36.332Z,101300.97
2018-02-23T04:27:42.481Z,101299.26
2018-02-23T04:28:48.704Z,101300.77
2018-02-23T04:29:54.920Z,101303.77
2018-02-23T04:31:01.094Z,101300.11
2018-02-23T04:32:07.360Z,101299.64
2018-02-23T04:33:13.570Z,101298.52
2018-02-23T04:34:19.726Z,101300.02
2018-02-23T04:35:25.877Z,101301.95
2018-02-23T04:36:32.220Z,101299.89
2018-02-23T04:37:38.428Z,101298.77
2018-02-23T04:38:44.620Z,101297.33
2018-02-23T04:39:50.765Z,101300.75
2018-02-23T04:40:57.064Z,101304.75
2018-02-23T04:42:09.087Z,101304.13
2018-02-23T04:43:14.999Z,101301.37
2018-02-23T04:44:21.244Z,101306.08
2018-02-23T04:45:27.441Z,101305.73
2018-02-23T04:46:33.798Z,101308.80
2018-02-23T04:47:48.111Z,101310.11
2018-02-23T04:48:54.465Z,101309.45
2018-02-23T04:50:00.493Z,101307.83
2018-02-23T04:51:06.900Z,101310.42
2018-02-23T04:52:18.084Z,101312.48
2018-02-23T04:53:24.286Z,101305.84
2018-02-23T04:54:30.489Z,101323.40
2018-02-23T04:55:38.721Z,101316.97
2018-02-23T04:56:44.928Z,101316.31
2018-02-23T04:57:51.097Z,101319.44
2018-02-23T04:58:57.278Z,101326.36
2018-02-23T05:00:03.444Z,101326.83
2018-02-23T05:01:13.359Z,101325.70
2018-02-23T05:02:19.769Z,101328.45
2018-02-23T05:03:25.985Z,101321.15
2018-02-23T05:04:32.190Z,101318.33
2018-02-23T05:05:38.764Z,101321.63
2018-02-23T05:06:45.405Z,101318.09
2018-02-23T05:07:52.277Z,101320.09
2018-02-23T05:08:59.284Z,101321.73
2018-02-23T05:10:05.164Z,101320.08
2018-02-23T05:11:11.643Z,101319.70
2018-02-23T05:12:18.515Z,101319.73
2018-02-23T05:13:25.228Z,101317.48
2018-02-23T05:14:31.825Z,101317.17
2018-02-23T05:15:38.913Z,101314.84
2018-02-23T05:16:47.376Z,101314.41
2018-02-23T05:17:55.757Z,101322.49
2018-02-23T05:19:01.804Z,101322.31
2018-02-23T05:20:07.975Z,101324.86
2018-02-23T05:21:14.522Z,101322.42
2018-02-23T05:22:20.588Z,101328.37
2018-02-23T05:23:27.451Z,101333.52
2018-02-23T05:24:33.654Z,101333.82
2018-02-23T05:25:39.835Z,101331.63
2018-02-23T05:26:45.968Z,101332.72
2018-02-23T05:27:52.544Z,101327.27
2018-02-23T05:29:00.410Z,101328.44
2018-02-23T05:30:06.895Z,101334.77
2018-02-23T05:31:12.845Z,101326.39
2018-02-23T05:32:19.033Z,101331.67
2018-02-23T05:33:25.211Z,101328.33
2018-02-23T05:34:31.414Z,101322.52
2018-02-23T05:35:37.669Z,101323.20
2018-02-23T05:36:43.874Z,101324.86
2018-02-23T05:37:50.974Z,101326.77
2018-02-23T05:38:57.438Z,101321.00
2018-02-23T05:40:03.626Z,101329.72
2018-02-23T05:41:09.552Z,101325.69
2018-02-23T05:42:15.805Z,101327.23
2018-02-23T05:43:22.001Z,101329.42
2018-02-23T05:44:28.173Z,101327.67
2018-02-23T05:45:34.363Z,101327.77
2018-02-23T05:46:42.028Z,101328.14
2018-02-23T05:47:48.256Z,101329.63
2018-02-23T05:48:54.468Z,101329.42
2018-02-23T05:50:01.536Z,101331.31
2018-02-23T05:51:07.750Z,101325.38
2018-02-23T05:52:14.000Z,101331.84
2018-02-23T05:53:20.456Z,101331.04
2018-02-23T05:54:26.633Z,101333.46
2018-02-23T05:55:32.775Z,101333.73
2018-02-23T05:56:38.956Z,101337.33
2018-02-23T05:57:45.145Z,101339.65
2018-02-23T05:58:51.323Z,101340.23
2018-02-23T05:59:57.475Z,101343.22
2018-02-23T06:01:03.644Z,101345.65
2018-02-23T06:02:09.886Z,101346.25
2018-02-23T06:03:16.096Z,101346.32
2018-02-23T06:04:22.247Z,101349.75
2018-02-23T06:05:28.398Z,101343.62
2018-02-23T06:06:34.581Z,101348.61
2018-02-23T06:07:40.794Z,101354.41
2018-02-23T06:08:47.018Z,101352.99
2018-02-23T06:09:53.001Z,101353.39
2018-02-23T06:10:59.246Z,101355.17
2018-02-23T06:12:05.422Z,101350.56
2018-02-23T06:13:11.364Z,101348.11
2018-02-23T06:14:17.888Z,101360.47
2018-02-23T06:15:23.870Z,101357.37
2018-02-23T06:16:30.034Z,101361.58
2018-02-23T06:17:41.725Z,101359.16
2018-02-23T06:18:53.278Z,101365.38
2018-02-23T06:20:09.960Z,101362.89
2018-02-23T06:21:16.164Z,101365.95
2018-02-23T06:22:22.392Z,101356.25
2018-02-23T06:23:28.527Z,101368.72
2018-02-23T06:24:34.689Z,101364.38
2018-02-23T06:25:40.894Z,101365.48
2018-02-23T06:26:47.122Z,101369.22
2018-02-23T06:27:53.268Z,101366.16
2018-02-23T06:28:59.425Z,101369.66
2018-02-23T06:30:05.593Z,101373.63
2018-02-23T06:31:11.825Z,101373.16
2018-02-23T06:32:18.046Z,101373.66
2018-02-23T06:33:24.260Z,101373.20
2018-02-23T06:34:30.417Z,101375.38
2018-02-23T06:35:36.614Z,101370.87
2018-02-23T06:36:42.793Z,101380.61
2018-02-23T06:37:48.974Z,101382.19
2018-02-23T06:38:54.973Z,101377.31
2018-02-23T06:40:01.619Z,101385.69
2018-02-23T06:41:09.001Z,101382.86
2018-02-23T06:42:15.237Z,101382.09
2018-02-23T06:43:21.472Z,101381.02
2018-02-23T06:44:27.642Z,101384.21
2018-02-23T06:45:33.589Z,101387.24
2018-02-23T06:46:39.823Z,101381.28
2018-02-23T06:47:46.070Z,101383.44
2018-02-23T06:48:52.313Z,101388.25
2018-02-23T06:49:58.508Z,101385.86
2018-02-23T06:51:04.785Z,101388.76
2018-02-23T06:52:11.082Z,101395.49
2018-02-23T06:53:17.220Z,101387.38
2018-02-23T06:54:25.458Z,101393.09
2018-02-23T06:55:31.684Z,101390.42
2018-02-23T06:56:37.847Z,101394.16
2018-02-23T06:57:43.993Z,101399.52
2018-02-23T06:58:50.167Z,101390.63
2018-02-23T06:59:56.344Z,101387.97
2018-02-23T07:01:02.558Z,101395.07
2018-02-23T07:02:08.705Z,101392.44
2018-02-23T07:03:14.877Z,101393.52
2018-02-23T07:04:21.091Z,101394.16
2018-02-23T07:05:27.266Z,101397.56
2018-02-23T07:06:33.419Z,101398.22
2018-02-23T07:07:39.626Z,101400.20
2018-02-23T07:08:45.802Z,101401.22
2018-02-23T07:09:51.663Z,101401.38
2018-02-23T07:10:57.636Z,101397.16
2018-02-23T07:12:03.617Z,101398.31
2018-02-23T07:13:09.812Z,101399.83
2018-02-23T07:14:16.016Z,101395.81
2018-02-23T07:15:22.289Z,101399.64
2018-02-23T07:16:28.504Z,101400.70
2018-02-23T07:17:34.894Z,101402.72
2018-02-23T07:18:41.098Z,101396.25
2018-02-23T07:19:47.228Z,101406.14
2018-02-23T07:20:53.383Z,101401.77
2018-02-23T07:21:59.560Z,101403.37
2018-02-23T07:23:05.760Z,101402.48
2018-02-23T07:24:11.922Z,101401.02
2018-02-23T07:25:18.088Z,101401.98
2018-02-23T07:26:24.280Z,101409.73
2018-02-23T07:27:30.487Z,101407.88
2018-02-23T07:28:38.990Z,101406.24
2018-02-23T07:29:45.163Z,101403.27
2018-02-23T07:30:51.327Z,101405.63
2018-02-23T07:31:57.562Z,101406.72
2018-02-23T07:33:03.677Z,101407.71
2018-02-23T07:34:23.657Z,101407.86
2018-02-23T07:35:29.881Z,101409.30
2018-02-23T07:36:35.871Z,101411.75
2018-02-23T07:37:42.032Z,101410.33
2018-02-23T07:38:48.207Z,101413.21
2018-02-23T07:39:54.417Z,101413.73
2018-02-23T07:41:00.595Z,101417.67
2018-02-23T07:42:12.094Z,101416.36
2018-02-23T07:43:18.510Z,101418.33
2018-02-23T07:44:24.663Z,101408.91
2018-02-23T07:45:30.829Z,101420.25
2018-02-23T07:46:36.839Z,101423.80
2018-02-23T07:47:43.042Z,101416.34
2018-02-23T07:48:49.288Z,101414.68
2018-02-23T07:49:55.417Z,101428.73
2018-02-23T07:51:01.510Z,101423.69
2018-02-23T07:52:07.508Z,101423.51
2018-02-23T07:53:13.450Z,101427.42
2018-02-23T07:54:20.780Z,101429.41
2018-02-23T07:55:26.989Z,101425.55
2018-02-23T07:56:32.996Z,101418.59
2018-02-23T07:57:39.268Z,101426.02
2018-02-23T07:58:45.233Z,101424.30
2018-02-23T07:59:51.231Z,101431.94
2018-02-23T08:00:57.247Z,101426.78
2018-02-23T08:02:03.481Z,101425.73
2018-02-23T08:03:09.705Z,101423.70
2018-02-23T08:04:15.906Z,101428.56
2018-02-23T08:05:22.088Z,101429.14
2018-02-23T08:06:28.299Z,101429.27
2018-02-23T08:07:34.118Z,101429.61
2018-02-23T08:08:40.260Z,101436.38
2018-02-23T08:09:46.128Z,101435.78
2018-02-23T08:10:52.338Z,101430.80
2018-02-23T08:11:58.490Z,101430.80
2018-02-23T08:13:04.694Z,101431.70
2018-02-23T08:14:10.824Z,101433.02
2018-02-23T08:15:17.029Z,101423.66
2018-02-23T08:16:23.435Z,101431.44
2018-02-23T08:17:29.665Z,101432.47
2018-02-23T08:18:35.865Z,101435.23
2018-02-23T08:19:42.084Z,101431.94
2018-02-23T08:20:48.235Z,101433.37
2018-02-23T08:21:54.399Z,101438.54
2018-02-23T08:23:00.716Z,101430.16
2018-02-23T08:24:06.874Z,101430.70
2018-02-23T08:25:13.078Z,101430.52
2018-02-23T08:26:19.228Z,101439.11
2018-02-23T08:27:25.409Z,101429.95
2018-02-23T08:28:31.516Z,101432.37
2018-02-23T08:29:37.720Z,101422.67
2018-02-23T08:30:43.869Z,101425.42
2018-02-23T08:31:49.909Z,101428.45
2018-02-23T08:32:56.055Z,101429.30
2018-02-23T08:34:02.247Z,101436.11
2018-02-23T08:35:08.734Z,101435.88
2018-02-23T08:36:16.252Z,101440.13
2018-02-23T08:37:22.398Z,101433.06
2018-02-23T08:38:28.587Z,101438.96
2018-02-23T08:39:34.762Z,101437.52
2018-02-23T08:40:40.939Z,101438.88
2018-02-23T08:41:47.124Z,101438.39
2018-02-23T08:42:53.322Z,101438.97
2018-02-23T08:43:59.546Z,101435.08
2018-02-23T08:45:05.888Z,101436.14
2018-02-23T08:46:12.070Z,101435.46
2018-02-23T08:47:18.192Z,101434.83
2018-02-23T08:48:24.389Z,101444.05
2018-02-23T08:49:30.313Z,101441.30
2018-02-23T08:50:36.454Z,101440.09
2018-02-23T08:51:42.580Z,101444.58
2018-02-23T08:52:48.811Z,101445.67
2018-02-23T08:53:54.939Z,101448.59
2018-02-23T08:55:01.090Z,101446.90
2018-02-23T08:56:07.284Z,101454.77
2018-02-23T08:57:13.460Z,101461.67
2018-02-23T08:58:19.677Z,101452.42
2018-02-23T08:59:25.897Z,101451.14
2018-02-23T09:00:43.045Z,101454.33
2018-02-23T09:01:48.760Z,101461.73
2018-02-23T09:02:54.943Z,101458.00
2018-02-23T09:04:01.191Z,101454.89
2018-02-23T09:05:07.234Z,101451.23
2018-02-23T09:06:13.397Z,101457.44
2018-02-23T09:07:19.576Z,101455.64
2018-02-23T09:08:25.763Z,101459.38
2018-02-23T09:09:31.634Z,101455.95
2018-02-23T09:10:37.904Z,101459.78
2018-02-23T09:11:44.385Z,101456.27
2018-02-23T09:12:50.603Z,101464.34
2018-02-23T09:13:56.918Z,101456.05
2018-02-23T09:15:03.090Z,101452.08
2018-02-23T09:16:09.092Z,101455.78
2018-02-23T09:17:15.378Z,101457.83
2018-02-23T09:18:21.573Z,101459.30
2018-02-23T09:19:27.776Z,101454.65
2018-02-23T09:20:33.920Z,101459.03
2018-02-23T09:21:40.107Z,101458.70
2018-02-23T09:22:46.307Z,101456.22
2018-02-23T09:23:52.176Z,101453.77
2018-02-23T09:24:58.366Z,101453.82
2018-02-23T09:26:04.528Z,101451.91
2018-02-23T09:27:10.468Z,101455.91
2018-02-23T09:28:16.893Z,101451.33
2018-02-23T09:29:23.096Z,101451.23
2018-02-23T09:30:29.251Z,101456.48
2018-02-23T09:31:35.368Z,101456.53
2018-02-23T09:32:41.493Z,101458.66
2018-02-23T09:33:58.497Z,101455.81
2018-02-23T09:35:04.428Z,101453.63
2018-02-23T09:36:10.568Z,101447.55
2018-02-23T09:37:16.678Z,101453.77
2018-02-23T09:38:22.804Z,101454.31
2018-02-23T09:39:29.005Z,101455.84
2018-02-23T09:40:35.144Z,101454.14
2018-02-23T09:41:41.387Z,101449.08
2018-02-23T09:42:47.564Z,101465.83
2018-02-23T09:43:53.780Z,101458.28
2018-02-23T09:44:59.979Z,101446.42
2018-02-23T09:46:06.121Z,101450.98
2018-02-23T09:47:12.347Z,101447.31
2018-02-23T09:48:18.524Z,101447.22
2018-02-23T09:49:24.720Z,101439.59
2018-02-23T09:50:30.900Z,101448.36
2018-02-23T09:51:37.044Z,101448.25
2018-02-23T09:52:43.245Z,101448.97
2018-02-23T09:53:49.617Z,101457.11
2018-02-23T09:54:55.561Z,101462.01
2018-02-23T09:56:01.739Z,101457.88
2018-02-23T09:57:07.905Z,101453.91
2018-02-23T09:58:14.085Z,101458.09
2018-02-23T09:59:20.213Z,101464.18
2018-02-23T10:00:26.405Z,101462.67
2018-02-23T10:01:32.604Z,101458.75
2018-02-23T10:02:38.761Z,101461.36
2018-02-23T10:03:44.895Z,101458.42
2018-02-23T10:04:51.050Z,101461.44
2018-02-23T10:05:57.263Z,101470.10
2018-02-23T10:07:03.449Z,101467.84
2018-02-23T10:08:09.676Z,101460.93
2018-02-23T10:09:15.812Z,101458.28
2018-02-23T10:10:21.989Z,101458.28
2018-02-23T10:11:28.208Z,101455.86
2018-02-23T10:12:34.364Z,101454.64
2018-02-23T10:13:40.521Z,101452.96
2018-02-23T10:14:46.719Z,101461.66
2018-02-23T10:15:52.880Z,101458.22
2018-02-23T10:16:59.013Z,101464.03
2018-02-23T10:18:04.919Z,101453.19
2018-02-23T10:19:10.831Z,101462.48
2018-02-23T10:20:17.057Z,101461.86
2018-02-23T10:21:23.322Z,101460.91
2018-02-23T10:22:29.523Z,101455.55
2018-02-23T10:23:35.773Z,101452.28
2018-02-23T10:24:42.148Z,101457.96
2018-02-23T10:25:48.401Z,101456.64
2018-02-23T10:26:54.610Z,101460.78
2018-02-23T10:28:00.764Z,101461.06
2018-02-23T10:29:06.938Z,101465.70
2018-02-23T10:30:13.081Z,101464.93
2018-02-23T10:31:19.290Z,101457.53
2018-02-23T10:32:25.445Z,101463.98
2018-02-23T10:33:31.657Z,101458.80
2018-02-23T10:34:37.707Z,101461.70
2018-02-23T10:35:43.699Z,101455.66
2018-02-23T10:36:49.675Z,101461.53
2018-02-23T10:37:55.826Z,101452.50
2018-02-23T10:39:02.037Z,101463.64
2018-02-23T10:40:08.400Z,101455.61
2018-02-23T10:41:14.459Z,101452.63
2018-02-23T10:42:20.479Z,101456.16
2018-02-23T10:43:26.503Z,101464.36
2018-02-23T10:44:32.774Z,101465.20
2018-02-23T10:45:38.771Z,101461.85
2018-02-23T10:46:44.612Z,101465.79
2018-02-23T10:47:50.760Z,101463.65
2018-02-23T10:48:56.800Z,101458.81
2018-02-23T10:50:03.030Z,101461.95
2018-02-23T10:51:09.237Z,101462.88
2018-02-23T10:52:15.193Z,101461.89
2018-02-23T10:53:21.416Z,101466.89
2018-02-23T10:54:27.446Z,101464.49
2018-02-23T10:55:35.596Z,101464.83
2018-02-23T10:56:41.478Z,101459.34
2018-02-23T10:57:47.479Z,101463.06
2018-02-23T10:58:53.470Z,101466.81
2018-02-23T10:59:59.495Z,101465.72
2018-02-23T11:01:05.736Z,101459.18
2018-02-23T11:02:11.723Z,101457.32
2018-02-23T11:03:17.900Z,101453.34
2018-02-23T11:04:23.848Z,101450.55
2018-02-23T11:05:30.026Z,101444.97
2018-02-23T11:06:36.208Z,101449.48
2018-02-23T11:07:42.432Z,101454.31
2018-02-23T11:08:48.634Z,101453.00
2018-02-23T11:09:54.800Z,101440.19
2018-02-23T11:11:01.085Z,101435.98
2018-02-23T11:12:07.313Z,101434.41
2018-02-23T11:13:13.517Z,101433.95
2018-02-23T11:14:20.036Z,101434.95
2018-02-23T11:15:26.493Z,101439.50
2018-02-23T11:16:32.654Z,101432.91
2018-02-23T11:17:38.515Z,101435.73
2018-02-23T11:18:50.612Z,101432.07
2018-02-23T11:19:58.644Z,101438.99
2018-02-23T11:21:04.889Z,101424.20
2018-02-23T11:22:12.177Z,101432.98
2018-02-23T11:23:18.367Z,101431.84
2018-02-23T11:24:24.241Z,101435.34
2018-02-23T11:25:30.363Z,101433.91
2018-02-23T11:26:36.555Z,101435.27
2018-02-23T11:27:42.705Z,101426.81
2018-02-23T11:28:48.907Z,101430.91
2018-02-23T11:29:55.158Z,101437.03
2018-02-23T11:31:01.446Z,101430.56
2018-02-23T11:32:07.622Z,101430.13
2018-02-23T11:33:14.675Z,101436.06
2018-02-23T11:34:20.826Z,101445.52
2018-02-23T11:35:27.282Z,101436.00
2018-02-23T11:36:33.467Z,101435.83
2018-02-23T11:37:39.660Z,101447.63
2018-02-23T11:38:45.854Z,101440.83
2018-02-23T11:39:52.036Z,101436.87
2018-02-23T11:40:58.226Z,101446.89
2018-02-23T11:42:04.479Z,101440.46
2018-02-23T11:43:10.700Z,101438.66
2018-02-23T11:44:16.720Z,101439.95
2018-02-23T11:45:22.876Z,101435.72
2018-02-23T11:46:29.018Z,101439.34
2018-02-23T11:47:35.203Z,101432.61
2018-02-23T11:48:41.356Z,101438.00
2018-02-23T11:49:47.581Z,101428.92
2018-02-23T11:50:54.260Z,101428.25
2018-02-23T11:52:00.433Z,101434.42
2018-02-23T11:53:06.662Z,101424.61
2018-02-23T11:54:12.504Z,101431.58
2018-02-23T11:55:20.587Z,101426.64
2018-02-23T11:56:27.452Z,101433.72
2018-02-23T11:57:40.040Z,101429.48
2018-02-23T11:58:48.313Z,101430.33
2018-02-23T11:59:56.784Z,101423.05
2018-02-23T12:01:05.950Z,101428.07
2018-02-23T12:02:13.509Z,101423.45
2018-02-23T12:03:21.853Z,101426.40
2018-02-23T12:04:29.701Z,101428.55
2018-02-23T12:05:36.846Z,101421.91
2018-02-23T12:06:44.064Z,101428.66
2018-02-23T12:07:51.267Z,101440.31
2018-02-23T12:08:58.661Z,101423.97
2018-02-23T12:10:04.916Z,101434.81
2018-02-23T12:11:11.101Z,101435.14
2018-02-23T12:12:17.469Z,101428.35
2018-02-23T12:13:23.701Z,101439.14
2018-02-23T12:14:30.342Z,101430.80
2018-02-23T12:15:36.600Z,101426.30
2018-02-23T12:16:42.807Z,101420.66
2018-02-23T12:17:48.996Z,101419.23
2018-02-23T12:18:55.185Z,101438.62
2018-02-23T12:20:01.437Z,101438.75
2018-02-23T12:21:07.342Z,101424.91
2018-02-23T12:22:13.560Z,101430.84
2018-02-23T12:23:19.928Z,101422.64
2018-02-23T12:24:26.147Z,101416.69
2018-02-23T12:25:32.344Z,101415.69
2018-02-23T12:26:38.923Z,101414.99
2018-02-23T12:27:45.195Z,101429.56
2018-02-23T12:28:51.997Z,101415.83
2018-02-23T12:29:58.190Z,101423.81
2018-02-23T12:31:04.369Z,101418.36
2018-02-23T12:32:10.603Z,101420.13
2018-02-23T12:33:16.852Z,101419.13
2018-02-23T12:34:23.032Z,101416.13
2018-02-23T12:35:29.289Z,101419.15
2018-02-23T12:36:35.755Z,101423.97
2018-02-23T12:37:41.931Z,101415.22